createdAt,value
2023-05-13T00:02:42.211Z,19.65
2023-05-13T00:05:43.792Z,19.64
2023-05-13T00:08:45.440Z,19.66
2023-05-13T00:11:46.944Z,19.65
2023-05-13T00:14:48.552Z,19.64
2023-05-13T00:17:50.033Z,19.64
2023-05-13T00:20:51.805Z,19.62
2023-05-13T00:23:53.583Z,19.60
2023-05-13T00:26:55.786Z,19.62
2023-05-13T00:29:59.346Z,19.60
2023-05-13T00:33:00.947Z,19.59
2023-05-13T00:36:02.444Z,19.57
2023-05-13T00:39:04.077Z,19.57
2023-05-13T00:42:05.888Z,19.57
2023-05-13T00:45:07.832Z,19.55
2023-05-13T00:48:09.530Z,19.54
2023-05-13T00:51:11.007Z,19.52
2023-05-13T00:54:12.508Z,19.51
2023-05-13T00:57:13.964Z,19.51
2023-05-13T01:00:15.744Z,19.49
2023-05-13T01:03:29.362Z,19.49
2023-05-13T01:06:36.960Z,19.46
2023-05-13T01:10:30.005Z,19.46
2023-05-13T01:13:36.915Z,19.45
2023-05-13T01:16:46.237Z,19.44
2023-05-13T01:19:56.896Z,19.44
2023-05-13T01:22:58.846Z,19.42
2023-05-13T01:26:00.341Z,19.41
2023-05-13T01:29:04.990Z,19.40
2023-05-13T01:32:09.262Z,19.40
2023-05-13T01:35:11.896Z,19.39
2023-05-13T01:38:20.190Z,19.39
2023-05-13T01:41:26.383Z,19.39
2023-05-13T01:44:27.980Z,19.37
2023-05-13T01:47:29.671Z,19.36
2023-05-13T01:50:31.695Z,19.35
2023-05-13T01:53:33.557Z,19.36
2023-05-13T01:56:35.175Z,19.34
2023-05-13T01:59:37.725Z,19.34
2023-05-13T02:02:39.709Z,19.34
2023-05-13T02:05:41.357Z,19.32
2023-05-13T02:08:43.513Z,19.33
2023-05-13T02:11:46.018Z,19.33
2023-05-13T02:14:47.520Z,19.32
2023-05-13T02:17:49.051Z,19.31
2023-05-13T02:20:50.987Z,19.31
2023-05-13T02:23:52.432Z,19.31
2023-05-13T02:26:54.456Z,19.29
2023-05-13T02:29:55.928Z,19.29
2023-05-13T02:32:57.936Z,19.30
2023-05-13T02:35:59.517Z,19.29
2023-05-13T02:39:01.107Z,19.28
2023-05-13T02:42:02.953Z,19.29
2023-05-13T02:45:07.598Z,19.30
2023-05-13T02:48:12.618Z,19.28
2023-05-13T02:51:14.403Z,19.29
2023-05-13T02:54:17.762Z,19.30
2023-05-13T02:57:19.342Z,19.30
2023-05-13T03:00:21.124Z,19.29
2023-05-13T03:03:22.912Z,19.29
2023-05-13T03:06:24.564Z,19.28
2023-05-13T03:09:26.297Z,19.28
2023-05-13T03:12:27.883Z,19.28
2023-05-13T03:15:29.385Z,19.28
2023-05-13T03:18:32.638Z,19.29
2023-05-13T03:21:34.824Z,19.28
2023-05-13T03:24:36.578Z,19.28
2023-05-13T03:27:38.867Z,19.29
2023-05-13T03:30:41.230Z,19.28
2023-05-13T03:33:48.734Z,19.28
2023-05-13T03:36:50.545Z,19.28
2023-05-13T03:39:52.231Z,19.28
2023-05-13T03:42:53.863Z,19.28
2023-05-13T03:45:58.010Z,19.27
2023-05-13T03:49:00.615Z,19.28
2023-05-13T03:52:03.595Z,19.28
2023-05-13T03:55:06.307Z,19.28
2023-05-13T03:58:14.283Z,19.29
2023-05-13T04:01:16.006Z,19.27
2023-05-13T04:04:17.536Z,19.27
2023-05-13T04:07:19.109Z,19.27
2023-05-13T04:10:20.778Z,19.28
2023-05-13T04:13:22.510Z,19.27
2023-05-13T04:16:25.536Z,19.28
2023-05-13T04:19:27.077Z,19.28
2023-05-13T04:22:28.659Z,19.29
2023-05-13T04:25:30.149Z,19.28
2023-05-13T04:28:31.765Z,19.28
2023-05-13T04:31:34.277Z,19.28
2023-05-13T04:34:37.479Z,19.28
2023-05-13T04:37:39.057Z,19.28
2023-05-13T04:40:44.011Z,19.30
2023-05-13T04:43:47.995Z,19.29
2023-05-13T04:46:49.650Z,19.30
2023-05-13T04:49:52.047Z,19.29
2023-05-13T04:52:54.890Z,19.29
2023-05-13T04:56:00.769Z,19.30
2023-05-13T04:59:03.811Z,19.30
2023-05-13T05:02:06.035Z,19.31
2023-05-13T05:05:08.146Z,19.31
2023-05-13T05:08:10.253Z,19.30
2023-05-13T05:11:12.258Z,19.30
2023-05-13T05:14:13.727Z,19.31
2023-05-13T05:17:15.877Z,19.31
2023-05-13T05:20:17.525Z,19.31
2023-05-13T05:23:21.595Z,19.30
2023-05-13T05:26:24.489Z,19.32
2023-05-13T05:29:26.314Z,19.31
2023-05-13T05:32:29.291Z,19.32
2023-05-13T05:35:30.850Z,19.32
2023-05-13T05:38:32.756Z,19.31
2023-05-13T05:41:35.839Z,19.32
2023-05-13T05:44:37.367Z,19.32
2023-05-13T05:47:38.962Z,19.31
2023-05-13T05:50:41.369Z,19.32
2023-05-13T05:53:45.148Z,19.31
2023-05-13T05:56:48.439Z,19.31
2023-05-13T05:59:53.371Z,19.31
2023-05-13T06:02:55.012Z,19.30
2023-05-13T06:05:57.293Z,19.32
2023-05-13T06:08:58.881Z,19.30
2023-05-13T06:12:00.752Z,19.31
2023-05-13T06:15:02.334Z,19.32
2023-05-13T06:18:05.582Z,19.32
2023-05-13T06:21:09.256Z,19.31
2023-05-13T06:24:10.768Z,19.30
2023-05-13T06:27:12.303Z,19.30
2023-05-13T06:30:14.072Z,19.30
2023-05-13T06:33:17.403Z,19.29
2023-05-13T06:36:18.916Z,19.29
2023-05-13T06:39:20.827Z,19.28
2023-05-13T06:42:23.133Z,19.28
2023-05-13T06:45:32.515Z,19.27
2023-05-13T06:48:34.536Z,19.27
2023-05-13T06:51:36.027Z,19.27
2023-05-13T06:54:37.807Z,19.27
2023-05-13T06:57:42.958Z,19.25
2023-05-13T07:00:46.635Z,19.25
2023-05-13T07:03:49.267Z,19.26
2023-05-13T07:06:51.680Z,19.25
2023-05-13T07:09:53.164Z,19.26
2023-05-13T07:12:54.685Z,19.26
2023-05-13T07:15:56.256Z,19.26
2023-05-13T07:18:57.850Z,19.27
2023-05-13T07:21:59.435Z,19.27
2023-05-13T07:25:01.222Z,19.27
2023-05-13T07:28:02.960Z,19.27
2023-05-13T07:31:05.352Z,19.27
2023-05-13T07:34:07.037Z,19.26
2023-05-13T07:37:08.637Z,19.27
2023-05-13T07:40:10.642Z,19.27
2023-05-13T07:43:13.482Z,19.27
2023-05-13T07:46:15.379Z,19.27
2023-05-13T07:49:16.866Z,19.27
2023-05-13T07:52:18.377Z,19.26
2023-05-13T07:55:20.294Z,19.27
2023-05-13T07:58:22.065Z,19.26
2023-05-13T08:01:23.699Z,19.27
2023-05-13T08:04:25.244Z,19.27
2023-05-13T08:07:28.563Z,19.28
2023-05-13T08:10:30.534Z,19.27
2023-05-13T08:13:32.072Z,19.27
2023-05-13T08:16:37.040Z,19.28
2023-05-13T08:19:38.670Z,19.26
2023-05-13T08:22:40.173Z,19.26
2023-05-13T08:25:41.707Z,19.26
2023-05-13T08:28:43.194Z,19.27
2023-05-13T08:31:44.800Z,19.27
2023-05-13T08:34:46.315Z,19.26
2023-05-13T08:37:47.958Z,19.25
2023-05-13T08:40:49.445Z,19.26
2023-05-13T08:43:52.078Z,19.25
2023-05-13T08:47:09.215Z,19.26
2023-05-13T08:50:12.587Z,19.25
2023-05-13T08:53:16.530Z,19.26
2023-05-13T08:56:17.986Z,19.24
2023-05-13T08:59:19.519Z,19.23
2023-05-13T09:02:21.531Z,19.23
2023-05-13T09:05:25.033Z,19.24
2023-05-13T09:08:27.065Z,19.22
2023-05-13T09:11:28.911Z,19.22
2023-05-13T09:14:32.459Z,19.22
2023-05-13T09:17:39.294Z,19.23
2023-05-13T09:20:40.906Z,19.22
2023-05-13T09:23:42.359Z,19.21
2023-05-13T09:26:44.988Z,19.23
2023-05-13T09:29:49.742Z,19.22
2023-05-13T09:33:04.941Z,19.23
2023-05-13T09:36:06.938Z,19.21
2023-05-13T09:39:08.517Z,19.19
2023-05-13T09:42:18.212Z,19.21
2023-05-13T09:45:20.162Z,19.18
2023-05-13T09:48:26.140Z,19.20
2023-05-13T09:51:30.813Z,19.19
2023-05-13T09:54:36.316Z,19.20
2023-05-13T09:57:39.676Z,19.20
2023-05-13T10:00:42.742Z,19.19
2023-05-13T10:03:44.703Z,19.20
2023-05-13T10:06:47.892Z,19.21
2023-05-13T10:09:49.756Z,19.20
2023-05-13T10:12:51.733Z,19.22
2023-05-13T10:15:55.363Z,19.24
2023-05-13T10:18:58.738Z,19.25
2023-05-13T10:22:01.339Z,19.25
2023-05-13T10:25:05.007Z,19.26
2023-05-13T10:28:06.698Z,19.27
2023-05-13T10:31:08.251Z,19.28
2023-05-13T10:34:11.088Z,19.29
2023-05-13T10:37:40.702Z,19.30
2023-05-13T10:41:13.806Z,19.30
2023-05-13T10:44:15.348Z,19.29
2023-05-13T10:47:16.985Z,19.28
2023-05-13T10:50:26.040Z,19.30
2023-05-13T10:53:32.256Z,19.29
2023-05-13T10:56:33.758Z,19.28
2023-05-13T10:59:37.087Z,19.28
2023-05-13T11:02:38.661Z,19.29
2023-05-13T11:05:41.640Z,19.31
2023-05-13T11:08:44.138Z,19.31
2023-05-13T11:11:58.885Z,19.34
2023-05-13T11:15:00.519Z,19.34
2023-05-13T11:18:02.046Z,19.35
2023-05-13T11:21:06.008Z,19.37
2023-05-13T11:24:08.096Z,19.37
2023-05-13T11:27:17.191Z,19.40
2023-05-13T11:30:22.950Z,19.41
2023-05-13T11:33:44.570Z,19.41
2023-05-13T11:36:48.229Z,19.41
2023-05-13T11:39:49.683Z,19.41
2023-05-13T11:42:52.026Z,19.42
2023-05-13T11:45:53.723Z,19.43
2023-05-13T11:48:55.507Z,19.42
2023-05-13T11:51:59.477Z,19.41
2023-05-13T11:55:01.046Z,19.40
2023-05-13T11:58:03.326Z,19.39
2023-05-13T12:01:04.851Z,19.38
2023-05-13T12:04:07.180Z,19.36
2023-05-13T12:07:11.898Z,19.34
2023-05-13T12:10:13.498Z,19.34
2023-05-13T12:13:15.050Z,19.33
2023-05-13T12:16:16.690Z,19.32
2023-05-13T12:19:19.751Z,19.32
2023-05-13T12:22:22.151Z,19.31
2023-05-13T12:25:39.085Z,19.31
2023-05-13T12:28:40.645Z,19.29
2023-05-13T12:32:03.485Z,19.29
2023-05-13T12:35:12.914Z,19.29
2023-05-13T12:38:20.162Z,19.28
2023-05-13T12:41:22.825Z,19.27
2023-05-13T12:44:26.625Z,19.27
2023-05-13T12:47:28.176Z,19.26
2023-05-13T12:50:29.770Z,19.25
2023-05-13T12:53:31.262Z,19.24
2023-05-13T12:56:32.851Z,19.24
2023-05-13T12:59:34.744Z,19.24
2023-05-13T13:02:37.405Z,19.25
2023-05-13T13:05:39.196Z,19.23
2023-05-13T13:08:40.820Z,19.23
2023-05-13T13:11:42.331Z,19.22
2023-05-13T13:14:43.996Z,19.23
2023-05-13T13:17:45.599Z,19.24
2023-05-13T13:20:47.291Z,19.26
2023-05-13T13:23:48.778Z,19.25
2023-05-13T13:26:50.528Z,19.26
2023-05-13T13:29:52.005Z,19.26
2023-05-13T13:32:53.537Z,19.27
2023-05-13T13:35:55.249Z,19.27
2023-05-13T13:38:56.734Z,19.28
2023-05-13T13:41:58.263Z,19.27
2023-05-13T13:44:59.736Z,19.29
2023-05-13T13:48:01.490Z,19.28
2023-05-13T13:51:03.093Z,19.27
2023-05-13T13:54:05.546Z,19.29
2023-05-13T13:57:07.054Z,19.28
2023-05-13T14:00:09.134Z,19.29
2023-05-13T14:03:10.797Z,19.28
2023-05-13T14:06:12.343Z,19.28
2023-05-13T14:09:13.828Z,19.29
2023-05-13T14:12:15.296Z,19.28
2023-05-13T14:15:16.987Z,19.29
2023-05-13T14:18:18.521Z,19.30
2023-05-13T14:21:20.016Z,19.29
2023-05-13T14:24:22.666Z,19.31
2023-05-13T14:27:24.497Z,19.32
2023-05-13T14:30:27.627Z,19.34
2023-05-13T14:33:30.635Z,19.36
2023-05-13T14:36:32.688Z,19.39
2023-05-13T14:39:34.474Z,19.40
2023-05-13T14:42:36.014Z,19.41
2023-05-13T14:45:37.618Z,19.43
2023-05-13T14:48:39.248Z,19.42
2023-05-13T14:51:40.915Z,19.43
2023-05-13T14:54:42.451Z,19.43
2023-05-13T14:57:44.359Z,19.45
2023-05-13T15:00:45.922Z,19.44
2023-05-13T15:03:47.485Z,19.46
2023-05-13T15:06:49.330Z,19.48
2023-05-13T15:09:50.999Z,19.48
2023-05-13T15:12:52.520Z,19.49
2023-05-13T15:15:55.188Z,19.51
2023-05-13T15:18:56.868Z,19.51
2023-05-13T15:21:58.351Z,19.51
2023-05-13T15:25:00.035Z,19.54
2023-05-13T15:28:01.697Z,19.54
2023-05-13T15:31:03.913Z,19.55
2023-05-13T15:34:05.454Z,19.57
2023-05-13T15:37:06.961Z,19.59
2023-05-13T15:40:08.864Z,19.62
2023-05-13T15:43:10.390Z,19.63
2023-05-13T15:46:12.081Z,19.64
2023-05-13T15:49:13.851Z,19.64
2023-05-13T15:52:15.797Z,19.64
2023-05-13T15:55:17.284Z,19.65
2023-05-13T15:58:18.803Z,19.66
2023-05-13T16:01:20.334Z,19.68
2023-05-13T16:04:21.926Z,19.68
2023-05-13T16:07:24.170Z,19.69
2023-05-13T16:10:25.693Z,19.69
2023-05-13T16:13:27.248Z,19.69
2023-05-13T16:16:28.702Z,19.70
2023-05-13T16:19:30.228Z,19.69
2023-05-13T16:22:34.454Z,19.69
2023-05-13T16:25:36.064Z,19.69
2023-05-13T16:28:38.024Z,19.68
2023-05-13T16:31:39.600Z,19.67
2023-05-13T16:34:41.103Z,19.65
2023-05-13T16:37:42.600Z,19.64
2023-05-13T16:40:44.307Z,19.62
2023-05-13T16:43:45.915Z,19.61
2023-05-13T16:46:47.406Z,19.60
2023-05-13T16:49:50.129Z,19.59
2023-05-13T16:52:51.748Z,19.60
2023-05-13T16:55:53.497Z,19.58
2023-05-13T16:58:54.937Z,19.55
2023-05-13T17:01:56.487Z,19.55
2023-05-13T17:04:57.993Z,19.53
2023-05-13T17:07:59.453Z,19.53
2023-05-13T17:11:00.953Z,19.52
2023-05-13T17:14:06.534Z,19.52
2023-05-13T17:17:08.171Z,19.52
2023-05-13T17:20:10.560Z,19.50
2023-05-13T17:23:12.149Z,19.50
2023-05-13T17:26:13.675Z,19.50
2023-05-13T17:29:15.212Z,19.50
2023-05-13T17:32:16.763Z,19.49
2023-05-13T17:35:18.296Z,19.49
2023-05-13T17:38:19.855Z,19.49
2023-05-13T17:41:21.692Z,19.49
2023-05-13T17:44:23.874Z,19.48
2023-05-13T17:47:25.973Z,19.48
2023-05-13T17:50:30.155Z,19.49
2023-05-13T17:53:34.390Z,19.49
2023-05-13T17:56:36.355Z,19.49
2023-05-13T17:59:37.920Z,19.50
2023-05-13T18:02:42.304Z,19.51
2023-05-13T18:05:43.973Z,19.51
2023-05-13T18:08:45.453Z,19.51
2023-05-13T18:11:46.973Z,19.52
2023-05-13T18:14:48.420Z,19.54
2023-05-13T18:17:50.574Z,19.53
2023-05-13T18:20:52.816Z,19.54
2023-05-13T18:23:54.771Z,19.53
2023-05-13T18:26:56.282Z,19.54
2023-05-13T18:29:57.841Z,19.54
2023-05-13T18:32:59.470Z,19.53
2023-05-13T18:36:01.279Z,19.54
2023-05-13T18:39:03.065Z,19.54
2023-05-13T18:42:05.005Z,19.54
2023-05-13T18:45:07.823Z,19.54
2023-05-13T18:48:09.340Z,19.52
2023-05-13T18:51:14.425Z,19.52
2023-05-13T18:54:16.070Z,19.53
2023-05-13T18:57:17.830Z,19.54
2023-05-13T19:00:19.444Z,19.53
2023-05-13T19:03:21.045Z,19.51
2023-05-13T19:06:22.659Z,19.52
2023-05-13T19:09:24.138Z,19.51
2023-05-13T19:12:26.241Z,19.52
2023-05-13T19:15:27.828Z,19.51
2023-05-13T19:18:29.430Z,19.51
2023-05-13T19:21:31.585Z,19.51
2023-05-13T19:24:33.116Z,19.52
2023-05-13T19:27:35.860Z,19.52
2023-05-13T19:30:38.192Z,19.52
2023-05-13T19:33:39.679Z,19.51
2023-05-13T19:36:41.488Z,19.51
2023-05-13T19:39:43.000Z,19.51
2023-05-13T19:42:44.482Z,19.50
2023-05-13T19:45:46.051Z,19.51
2023-05-13T19:48:47.582Z,19.52
2023-05-13T19:51:49.051Z,19.51
2023-05-13T19:54:50.710Z,19.52
2023-05-13T19:57:52.489Z,19.52
2023-05-13T20:00:54.453Z,19.52
2023-05-13T20:03:56.465Z,19.51
2023-05-13T20:06:58.132Z,19.52
2023-05-13T20:09:59.726Z,19.51
2023-05-13T20:13:03.531Z,19.50
2023-05-13T20:16:05.204Z,19.51
2023-05-13T20:19:07.083Z,19.51
2023-05-13T20:22:09.143Z,19.50
2023-05-13T20:25:10.917Z,19.50
2023-05-13T20:28:12.473Z,19.50
2023-05-13T20:31:14.611Z,19.50
2023-05-13T20:34:16.161Z,19.49
2023-05-13T20:37:18.078Z,19.49
2023-05-13T20:40:19.585Z,19.49
2023-05-13T20:43:21.076Z,19.49
2023-05-13T20:46:23.197Z,19.48
2023-05-13T20:49:24.766Z,19.48
2023-05-13T20:52:26.515Z,19.48
2023-05-13T20:55:28.207Z,19.48
2023-05-13T20:58:30.434Z,19.48
2023-05-13T21:01:34.700Z,19.48
2023-05-13T21:04:36.527Z,19.47
2023-05-13T21:07:38.047Z,19.47
2023-05-13T21:10:39.631Z,19.46
2023-05-13T21:13:41.075Z,19.46
2023-05-13T21:16:42.710Z,19.46
2023-05-13T21:19:44.162Z,19.46
2023-05-13T21:22:46.019Z,19.47
2023-05-13T21:25:47.593Z,19.45
2023-05-13T21:28:49.036Z,19.45
2023-05-13T21:31:50.533Z,19.45
2023-05-13T21:34:52.142Z,19.44
2023-05-13T21:37:56.150Z,19.46
2023-05-13T21:41:06.217Z,19.44
2023-05-13T21:44:07.724Z,19.44
2023-05-13T21:47:09.271Z,19.43
2023-05-13T21:50:11.215Z,19.43
2023-05-13T21:53:13.114Z,19.43
2023-05-13T21:56:14.582Z,19.42
2023-05-13T21:59:16.065Z,19.43
2023-05-13T22:02:17.710Z,19.42
2023-05-13T22:05:19.199Z,19.42
2023-05-13T22:08:21.046Z,19.43
2023-05-13T22:11:23.193Z,19.43
2023-05-13T22:14:24.667Z,19.41
2023-05-13T22:17:26.234Z,19.43
2023-05-13T22:20:27.833Z,19.44
2023-05-13T22:23:29.299Z,19.43
2023-05-13T22:26:30.847Z,19.42
2023-05-13T22:29:32.515Z,19.42
2023-05-13T22:32:34.323Z,19.43
2023-05-13T22:35:36.480Z,19.42
2023-05-13T22:38:38.876Z,19.43
2023-05-13T22:41:40.399Z,19.42
2023-05-13T22:44:41.920Z,19.42
2023-05-13T22:47:43.450Z,19.42
2023-05-13T22:50:45.112Z,19.42
2023-05-13T22:53:46.607Z,19.41
2023-05-13T22:56:48.092Z,19.42
2023-05-13T22:59:49.550Z,19.42
2023-05-13T23:02:51.087Z,19.41
2023-05-13T23:05:52.772Z,19.41
2023-05-13T23:08:54.260Z,19.41
2023-05-13T23:11:55.905Z,19.41
2023-05-13T23:14:57.348Z,19.41
2023-05-13T23:17:58.908Z,19.41
2023-05-13T23:21:01.281Z,19.41
2023-05-13T23:24:03.459Z,19.42
2023-05-13T23:27:05.170Z,19.41
2023-05-13T23:30:07.347Z,19.41
2023-05-13T23:33:09.191Z,19.39
2023-05-13T23:36:10.700Z,19.40
2023-05-13T23:39:12.134Z,19.39
2023-05-13T23:42:13.653Z,19.39
2023-05-13T23:45:15.815Z,19.40
2023-05-13T23:48:17.384Z,19.39
2023-05-13T23:51:18.861Z,19.38
2023-05-13T23:54:20.327Z,19.38
2023-05-13T23:57:22.132Z,19.38
